createdAt,value
2022-11-28T00:02:23.596Z,0.51
2022-11-28T00:04:53.080Z,0.31
2022-11-28T00:07:22.891Z,0.18
2022-11-28T00:09:53.066Z,0.06
2022-11-28T00:12:21.330Z,0.02
2022-11-28T00:14:49.676Z,-0.12
2022-11-28T00:17:17.947Z,-0.14
2022-11-28T00:19:46.202Z,-0.23
2022-11-28T00:22:14.477Z,-0.33
2022-11-28T00:24:44.490Z,-0.46
2022-11-28T00:27:12.992Z,-0.50
2022-11-28T00:29:41.540Z,-0.56
2022-11-28T00:32:09.901Z,-0.62
2022-11-28T00:34:38.161Z,-0.70
2022-11-28T00:37:06.460Z,-0.75
2022-11-28T00:39:34.699Z,-0.79
2022-11-28T00:42:04.919Z,-0.83
2022-11-28T00:44:33.854Z,-0.88
2022-11-28T00:47:02.146Z,-0.87
2022-11-28T00:49:30.403Z,-0.95
2022-11-28T00:51:58.647Z,-1.00
2022-11-28T00:54:26.917Z,-1.02
2022-11-28T00:56:55.240Z,-1.03
2022-11-28T00:59:24.858Z,-1.02
2022-11-28T01:01:53.187Z,-1.06
2022-11-28T01:04:21.449Z,-1.07
2022-11-28T01:06:50.894Z,-1.09
2022-11-28T01:09:21.223Z,-1.10
2022-11-28T01:11:50.335Z,-1.12
2022-11-28T01:14:20.193Z,-1.22
2022-11-28T01:16:50.087Z,-1.21
2022-11-28T01:19:18.396Z,-1.20
2022-11-28T01:21:46.819Z,-1.23
2022-11-28T01:24:16.858Z,-1.26
2022-11-28T01:26:45.214Z,-1.27
2022-11-28T01:29:13.693Z,-1.28
2022-11-28T01:31:42.416Z,-1.31
2022-11-28T01:34:12.239Z,-1.36
2022-11-28T01:36:40.471Z,-1.37
2022-11-28T01:39:08.891Z,-1.37
2022-11-28T01:41:37.169Z,-1.37
2022-11-28T01:44:09.285Z,-1.33
2022-11-28T01:46:37.875Z,-1.30
2022-11-28T01:49:12.493Z,-1.19
2022-11-28T01:51:43.915Z,-1.13
2022-11-28T01:54:12.711Z,-1.07
2022-11-28T01:56:45.028Z,-1.16
2022-11-28T01:59:15.247Z,-1.27
2022-11-28T02:01:44.529Z,-1.36
2022-11-28T02:04:15.002Z,-1.44
2022-11-28T02:06:43.734Z,-1.39
2022-11-28T02:09:13.408Z,-1.38
2022-11-28T02:11:56.811Z,-1.38
2022-11-28T02:14:35.185Z,-1.42
2022-11-28T02:17:13.387Z,-1.37
2022-11-28T02:20:04.619Z,-1.45
2022-11-28T02:22:38.295Z,-1.57
2022-11-28T02:25:27.987Z,-1.52
2022-11-28T02:28:31.026Z,-1.41
2022-11-28T02:31:04.502Z,-1.41
2022-11-28T02:33:35.725Z,-1.52
2022-11-28T02:36:11.764Z,-1.57
2022-11-28T02:38:52.449Z,-1.67
2022-11-28T02:41:27.070Z,-1.66
2022-11-28T02:44:03.747Z,-1.60
2022-11-28T02:46:39.335Z,-1.76
2022-11-28T02:49:11.811Z,-1.72
2022-11-28T02:51:42.366Z,-1.81
2022-11-28T02:54:13.127Z,-1.86
2022-11-28T02:56:48.466Z,-1.83
2022-11-28T02:59:35.175Z,-1.86
2022-11-28T03:02:04.220Z,-1.72
2022-11-28T03:04:40.482Z,-1.77
2022-11-28T03:07:17.630Z,-1.86
2022-11-28T03:09:56.312Z,-1.88
2022-11-28T03:12:31.626Z,-1.92
2022-11-28T03:15:02.285Z,-1.91
2022-11-28T03:17:35.893Z,-1.94
2022-11-28T03:20:15.577Z,-1.85
2022-11-28T03:22:50.055Z,-1.63
2022-11-28T03:25:24.009Z,-1.66
2022-11-28T03:27:57.889Z,-1.59
2022-11-28T03:30:30.886Z,-1.60
2022-11-28T03:32:59.918Z,-1.74
2022-11-28T03:35:32.703Z,-1.64
2022-11-28T03:38:04.423Z,-1.60
2022-11-28T03:40:36.940Z,-1.60
2022-11-28T03:43:07.172Z,-1.66
2022-11-28T03:45:38.455Z,-1.52
2022-11-28T03:48:10.420Z,-1.44
2022-11-28T03:50:43.627Z,-1.56
2022-11-28T03:53:16.160Z,-1.31
2022-11-28T03:55:47.074Z,-1.46
2022-11-28T03:58:18.818Z,-1.60
2022-11-28T04:00:51.774Z,-1.74
2022-11-28T04:03:27.214Z,-1.86
2022-11-28T04:06:01.563Z,-1.85
2022-11-28T04:08:32.996Z,-1.93
2022-11-28T04:11:06.219Z,-2.04
2022-11-28T04:13:37.673Z,-2.08
2022-11-28T04:16:09.838Z,-2.05
2022-11-28T04:18:46.214Z,-2.02
2022-11-28T04:21:20.189Z,-1.88
2022-11-28T04:23:49.893Z,-1.67
2022-11-28T04:26:23.108Z,-1.82
2022-11-28T04:28:52.107Z,-1.99
2022-11-28T04:31:22.752Z,-2.13
2022-11-28T04:33:55.515Z,-2.20
2022-11-28T04:36:26.748Z,-2.20
2022-11-28T04:38:56.676Z,-2.31
2022-11-28T04:41:29.385Z,-2.41
2022-11-28T04:44:01.037Z,-2.45
2022-11-28T04:46:34.167Z,-2.49
2022-11-28T04:49:02.558Z,-2.51
2022-11-28T04:51:37.227Z,-2.53
2022-11-28T04:54:10.785Z,-2.56
2022-11-28T04:56:42.509Z,-2.56
2022-11-28T04:59:11.088Z,-2.49
2022-11-28T05:01:40.055Z,-2.43
2022-11-28T05:04:08.652Z,-2.42
2022-11-28T05:06:38.700Z,-2.49
2022-11-28T05:09:07.110Z,-2.60
2022-11-28T05:11:35.370Z,-2.56
2022-11-28T05:14:03.671Z,-2.52
2022-11-28T05:16:31.988Z,-2.58
2022-11-28T05:19:00.330Z,-2.57
2022-11-28T05:21:28.611Z,-2.58
2022-11-28T05:23:58.154Z,-2.63
2022-11-28T05:26:26.443Z,-2.62
2022-11-28T05:28:54.699Z,-2.48
2022-11-28T05:31:23.287Z,-2.48
2022-11-28T05:33:52.067Z,-2.59
2022-11-28T05:36:20.256Z,-2.63
2022-11-28T05:38:48.829Z,-2.59
2022-11-28T05:41:22.584Z,-2.59
2022-11-28T05:43:51.111Z,-2.62
2022-11-28T05:46:19.834Z,-2.63
2022-11-28T05:48:48.411Z,-2.62
2022-11-28T05:51:16.718Z,-2.62
2022-11-28T05:53:45.148Z,-2.66
2022-11-28T05:56:16.398Z,-2.71
2022-11-28T05:58:46.113Z,-2.71
2022-11-28T06:01:16.245Z,-2.74
2022-11-28T06:03:44.826Z,-2.76
2022-11-28T06:06:15.331Z,-2.73
2022-11-28T06:08:43.727Z,-2.55
2022-11-28T06:11:14.717Z,-2.41
2022-11-28T06:13:43.309Z,-2.31
2022-11-28T06:16:14.619Z,-2.18
2022-11-28T06:18:43.317Z,-2.09
2022-11-28T06:21:13.189Z,-1.96
2022-11-28T06:23:41.967Z,-1.85
2022-11-28T06:26:11.655Z,-1.77
2022-11-28T06:28:40.647Z,-1.73
2022-11-28T06:31:13.139Z,-1.74
2022-11-28T06:33:41.980Z,-1.65
2022-11-28T06:36:11.827Z,-1.59
2022-11-28T06:38:40.294Z,-1.43
2022-11-28T06:41:10.275Z,-1.35
2022-11-28T06:43:38.696Z,-1.25
2022-11-28T06:46:07.248Z,-1.18
2022-11-28T06:48:38.852Z,-1.21
2022-11-28T06:51:08.437Z,-1.19
2022-11-28T06:53:37.023Z,-1.13
2022-11-28T06:56:07.004Z,-0.94
2022-11-28T06:58:35.791Z,-0.79
2022-11-28T07:01:08.522Z,-0.82
2022-11-28T07:03:39.512Z,-0.75
2022-11-28T07:06:08.424Z,-0.70
2022-11-28T07:08:37.335Z,-0.55
2022-11-28T07:11:11.448Z,-0.70
2022-11-28T07:13:40.250Z,-0.45
2022-11-28T07:16:08.979Z,-0.49
2022-11-28T07:18:38.859Z,-0.51
2022-11-28T07:21:07.543Z,-0.46
2022-11-28T07:23:36.014Z,-0.55
2022-11-28T07:26:05.554Z,-0.71
2022-11-28T07:28:35.052Z,-0.64
2022-11-28T07:31:05.766Z,-0.55
2022-11-28T07:33:35.728Z,-0.73
2022-11-28T07:36:07.293Z,-0.68
2022-11-28T07:38:37.125Z,-0.65
2022-11-28T07:41:08.465Z,-0.83
2022-11-28T07:43:37.561Z,-0.83
2022-11-28T07:46:07.398Z,-0.73
2022-11-28T07:48:36.551Z,-0.64
2022-11-28T07:51:09.651Z,-0.76
2022-11-28T07:53:38.688Z,-0.69
2022-11-28T07:56:09.010Z,-0.72
2022-11-28T07:58:39.110Z,-0.58
2022-11-28T08:01:10.968Z,-0.60
2022-11-28T08:03:39.492Z,-0.51
2022-11-28T08:06:09.976Z,-0.46
2022-11-28T08:08:38.481Z,-0.30
2022-11-28T08:11:08.157Z,-0.21
2022-11-28T08:13:37.656Z,-0.05
2022-11-28T08:16:07.706Z,0.04
2022-11-28T08:18:36.277Z,0.10
2022-11-28T08:21:06.384Z,0.19
2022-11-28T08:23:36.835Z,0.18
2022-11-28T08:26:06.577Z,0.30
2022-11-28T08:28:35.050Z,0.46
2022-11-28T08:31:10.470Z,0.64
2022-11-28T08:33:39.000Z,0.51
2022-11-28T08:36:08.043Z,0.64
2022-11-28T08:38:38.459Z,0.49
2022-11-28T08:41:08.779Z,0.61
2022-11-28T08:43:38.018Z,0.70
2022-11-28T08:46:07.081Z,0.84
2022-11-28T08:48:36.274Z,0.87
2022-11-28T08:51:05.030Z,1.00
2022-11-28T08:53:33.451Z,1.05
2022-11-28T08:56:03.767Z,1.17
2022-11-28T08:58:32.057Z,1.31
2022-11-28T09:01:00.450Z,1.18
2022-11-28T09:03:28.790Z,1.22
2022-11-28T09:06:01.623Z,1.35
2022-11-28T09:08:30.037Z,1.30
2022-11-28T09:10:58.436Z,1.40
2022-11-28T09:13:28.347Z,1.20
2022-11-28T09:15:56.716Z,1.02
2022-11-28T09:18:25.070Z,1.16
2022-11-28T09:20:58.772Z,1.32
2022-11-28T09:23:27.139Z,1.23
2022-11-28T09:25:55.468Z,1.51
2022-11-28T09:28:24.575Z,1.30
2022-11-28T09:31:01.500Z,1.47
2022-11-28T09:33:30.057Z,1.60
2022-11-28T09:35:58.404Z,1.83
2022-11-28T09:38:27.008Z,1.96
2022-11-28T09:40:55.299Z,2.18
2022-11-28T09:43:29.934Z,2.28
2022-11-28T09:46:02.066Z,2.29
2022-11-28T09:48:32.942Z,2.28
2022-11-28T09:51:04.627Z,2.13
2022-11-28T09:53:39.128Z,2.09
2022-11-28T09:56:12.387Z,2.25
2022-11-28T09:58:44.287Z,2.31
2022-11-28T10:01:18.622Z,2.52
2022-11-28T10:03:54.594Z,2.74
2022-11-28T10:06:26.362Z,2.74
2022-11-28T10:09:13.075Z,2.56
2022-11-28T10:11:51.448Z,2.49
2022-11-28T10:14:33.992Z,2.33
2022-11-28T10:17:08.617Z,2.82
2022-11-28T10:19:56.209Z,2.72
2022-11-28T10:22:33.728Z,2.52
2022-11-28T10:25:06.647Z,2.73
2022-11-28T10:27:36.544Z,2.61
2022-11-28T10:30:08.565Z,2.57
2022-11-28T10:32:42.202Z,2.66
2022-11-28T10:35:15.361Z,2.78
2022-11-28T10:37:44.446Z,2.55
2022-11-28T10:40:19.628Z,2.50
2022-11-28T10:42:52.746Z,2.37
2022-11-28T10:45:28.258Z,2.46
2022-11-28T10:48:37.592Z,2.72
2022-11-28T10:51:06.011Z,3.06
2022-11-28T10:53:42.806Z,3.41
2022-11-28T10:56:19.472Z,3.53
2022-11-28T10:58:52.075Z,3.37
2022-11-28T11:01:20.477Z,3.26
2022-11-28T11:03:50.314Z,3.13
2022-11-28T11:06:18.764Z,2.97
2022-11-28T11:08:47.365Z,3.02
2022-11-28T11:11:24.488Z,2.76
2022-11-28T11:14:01.932Z,3.02
2022-11-28T11:16:49.983Z,3.15
2022-11-28T11:19:27.325Z,3.36
2022-11-28T11:22:03.437Z,3.72
2022-11-28T11:24:32.217Z,3.97
2022-11-28T11:27:10.683Z,3.92
2022-11-28T11:29:40.583Z,3.73
2022-11-28T11:32:21.814Z,3.83
2022-11-28T11:34:51.793Z,4.71
2022-11-28T11:37:33.654Z,4.57
2022-11-28T11:40:03.630Z,4.59
2022-11-28T11:42:34.036Z,4.24
2022-11-28T11:45:25.782Z,4.15
2022-11-28T11:47:54.484Z,4.53
2022-11-28T11:50:26.041Z,3.98
2022-11-28T11:53:06.403Z,4.28
2022-11-28T11:55:40.870Z,4.53
2022-11-28T11:58:12.767Z,4.51
2022-11-28T12:00:42.128Z,4.31
2022-11-28T12:03:18.359Z,4.10
2022-11-28T12:06:13.259Z,4.01
2022-11-28T12:08:44.306Z,4.24
2022-11-28T12:11:16.839Z,4.15
2022-11-28T12:13:45.270Z,4.31
2022-11-28T12:16:29.255Z,4.33
2022-11-28T12:19:01.582Z,4.50
2022-11-28T12:21:37.219Z,4.01
2022-11-28T12:24:11.557Z,3.83
2022-11-28T12:26:46.937Z,3.68
2022-11-28T12:29:39.756Z,3.74
2022-11-28T12:32:19.896Z,3.93
2022-11-28T12:34:58.737Z,4.14
2022-11-28T12:38:08.919Z,4.22
2022-11-28T12:40:32.966Z,3.84
2022-11-28T12:43:13.566Z,4.03
2022-11-28T12:45:48.430Z,3.78
2022-11-28T12:48:42.710Z,3.67
2022-11-28T12:51:18.387Z,3.62
2022-11-28T12:54:00.600Z,3.71
2022-11-28T12:56:40.031Z,3.80
2022-11-28T12:59:13.911Z,3.76
2022-11-28T13:01:53.014Z,3.42
2022-11-28T13:04:31.538Z,3.25
2022-11-28T13:07:04.914Z,3.29
2022-11-28T13:09:36.339Z,3.32
2022-11-28T13:12:19.316Z,3.45
2022-11-28T13:14:52.967Z,3.59
2022-11-28T13:17:30.412Z,3.56
2022-11-28T13:20:05.094Z,3.60
2022-11-28T13:22:38.204Z,3.65
2022-11-28T13:25:10.652Z,3.51
2022-11-28T13:27:40.974Z,3.32
2022-11-28T13:30:21.177Z,2.95
2022-11-28T13:32:54.792Z,2.93
2022-11-28T13:35:23.760Z,3.21
2022-11-28T13:40:52.788Z,2.61
2022-11-28T13:43:26.691Z,2.64
2022-11-28T13:49:14.545Z,2.88
2022-11-28T13:51:43.591Z,3.05
2022-11-28T13:54:45.829Z,3.18
2022-11-28T13:57:39.922Z,3.44
2022-11-28T14:00:22.884Z,3.62
2022-11-28T14:02:53.219Z,3.55
2022-11-28T14:05:29.531Z,3.69
2022-11-28T14:07:58.562Z,3.58
2022-11-28T14:10:36.474Z,3.53
2022-11-28T14:13:22.872Z,3.70
2022-11-28T14:16:01.263Z,3.83
2022-11-28T14:18:56.396Z,3.70
2022-11-28T14:21:30.326Z,3.67
2022-11-28T14:24:06.127Z,3.65
2022-11-28T14:26:36.348Z,3.57
2022-11-28T14:29:09.157Z,3.49
2022-11-28T14:31:44.586Z,3.46
2022-11-28T14:34:41.807Z,3.48
2022-11-28T14:37:49.097Z,3.49
2022-11-28T14:40:54.665Z,3.19
2022-11-28T14:43:27.131Z,3.26
2022-11-28T14:46:33.765Z,3.36
2022-11-28T14:49:21.711Z,3.35
2022-11-28T14:55:20.665Z,3.33
2022-11-28T14:57:59.912Z,3.22
2022-11-28T15:00:30.857Z,3.27
2022-11-28T15:03:08.917Z,3.32
2022-11-28T15:05:49.416Z,3.28
2022-11-28T15:08:35.668Z,3.29
2022-11-28T15:11:21.875Z,3.28
2022-11-28T15:14:03.036Z,3.40
2022-11-28T15:16:33.546Z,3.30
2022-11-28T15:19:07.432Z,3.46
2022-11-28T15:21:46.184Z,3.41
2022-11-28T15:24:25.054Z,3.25
2022-11-28T15:26:57.656Z,3.24
2022-11-28T15:29:28.355Z,3.18
2022-11-28T15:31:58.884Z,3.20
2022-11-28T15:34:29.755Z,3.14
2022-11-28T15:37:01.764Z,3.10
2022-11-28T15:39:35.209Z,3.08
2022-11-28T15:42:05.619Z,3.08
2022-11-28T15:44:34.883Z,3.17
2022-11-28T15:47:03.750Z,3.19
2022-11-28T15:49:34.137Z,3.17
2022-11-28T15:52:06.551Z,3.30
2022-11-28T15:54:38.110Z,3.27
2022-11-28T15:57:07.286Z,3.28
2022-11-28T15:59:35.663Z,3.25
2022-11-28T16:02:14.716Z,3.51
2022-11-28T16:04:44.149Z,3.54
2022-11-28T16:07:16.403Z,3.44
2022-11-28T16:09:54.911Z,3.28
2022-11-28T16:12:23.825Z,3.17
2022-11-28T16:14:55.484Z,3.20
2022-11-28T16:17:28.032Z,3.22
2022-11-28T16:19:57.774Z,3.18
2022-11-28T16:22:33.842Z,3.18
2022-11-28T16:25:14.428Z,3.21
2022-11-28T16:27:45.637Z,3.27
2022-11-28T16:30:30.343Z,3.19
2022-11-28T16:33:00.525Z,3.07
2022-11-28T16:35:32.002Z,3.18
2022-11-28T16:38:16.538Z,3.12
2022-11-28T16:40:51.927Z,3.07
2022-11-28T16:43:23.967Z,3.03
2022-11-28T16:46:01.207Z,3.03
2022-11-28T16:48:34.684Z,3.09
2022-11-28T16:51:30.027Z,3.25
2022-11-28T16:54:03.614Z,3.21
2022-11-28T16:56:44.595Z,3.21
2022-11-28T16:59:15.424Z,3.25
2022-11-28T17:01:46.593Z,3.15
2022-11-28T17:04:26.749Z,3.18
2022-11-28T17:06:57.424Z,3.02
2022-11-28T17:09:29.147Z,3.06
2022-11-28T17:11:59.823Z,3.06
2022-11-28T17:14:28.958Z,3.03
2022-11-28T17:17:00.275Z,3.01
2022-11-28T17:19:30.447Z,2.95
2022-11-28T17:22:01.505Z,2.95
2022-11-28T17:24:35.932Z,2.84
2022-11-28T17:27:08.389Z,2.92
2022-11-28T17:29:38.581Z,3.05
2022-11-28T17:32:10.774Z,2.89
2022-11-28T17:34:42.669Z,2.79
2022-11-28T17:37:12.503Z,2.81
2022-11-28T17:40:04.313Z,2.81
2022-11-28T17:42:35.713Z,2.74
2022-11-28T17:45:05.321Z,2.71
2022-11-28T17:47:37.145Z,2.61
2022-11-28T17:50:08.164Z,2.56
2022-11-28T17:52:39.110Z,2.59
2022-11-28T17:55:11.492Z,2.48
2022-11-28T17:57:43.216Z,2.44
2022-11-28T18:00:17.351Z,2.51
2022-11-28T18:02:47.683Z,2.60
2022-11-28T18:05:17.458Z,2.58
2022-11-28T18:07:48.382Z,2.52
2022-11-28T18:10:19.881Z,2.50
2022-11-28T18:12:49.173Z,2.56
2022-11-28T18:15:20.009Z,2.55
2022-11-28T18:17:50.484Z,2.55
2022-11-28T18:20:22.613Z,2.47
2022-11-28T18:22:52.950Z,2.35
2022-11-28T18:25:25.496Z,2.40
2022-11-28T18:27:55.663Z,2.37
2022-11-28T18:30:25.702Z,2.41
2022-11-28T18:32:56.026Z,2.44
2022-11-28T18:35:26.156Z,2.48
2022-11-28T18:37:56.005Z,2.46
2022-11-28T18:40:29.222Z,2.37
2022-11-28T18:42:59.660Z,2.35
2022-11-28T18:45:30.041Z,2.36
2022-11-28T18:48:01.183Z,2.42
2022-11-28T18:50:32.802Z,2.38
2022-11-28T18:53:03.297Z,2.32
2022-11-28T18:55:36.741Z,2.35
2022-11-28T18:58:07.315Z,2.42
2022-11-28T19:00:37.676Z,2.49
2022-11-28T19:03:08.203Z,2.44
2022-11-28T19:05:46.049Z,2.37
2022-11-28T19:08:15.468Z,2.35
2022-11-28T19:10:49.139Z,2.31
2022-11-28T19:13:20.698Z,2.39
2022-11-28T19:15:52.265Z,2.32
2022-11-28T19:18:25.772Z,2.25
2022-11-28T19:20:56.350Z,2.37
2022-11-28T19:23:25.882Z,2.53
2022-11-28T19:26:04.064Z,2.54
2022-11-28T19:28:33.832Z,2.52
2022-11-28T19:31:08.082Z,2.47
2022-11-28T19:33:43.983Z,2.39
2022-11-28T19:36:16.454Z,2.34
2022-11-28T19:38:47.117Z,2.35
2022-11-28T19:41:20.600Z,2.38
2022-11-28T19:43:52.190Z,2.53
2022-11-28T19:46:22.721Z,2.39
2022-11-28T19:48:53.322Z,2.41
2022-11-28T19:51:23.112Z,2.44
2022-11-28T19:53:54.609Z,2.42
2022-11-28T19:56:29.543Z,2.39
2022-11-28T19:59:00.506Z,2.36
2022-11-28T20:01:31.747Z,2.23
2022-11-28T20:04:01.924Z,2.23
2022-11-28T20:06:34.230Z,2.25
2022-11-28T20:09:10.201Z,2.34
2022-11-28T20:11:46.278Z,2.37
2022-11-28T20:14:19.319Z,2.36
2022-11-28T20:16:50.675Z,2.24
2022-11-28T20:19:23.366Z,2.19
2022-11-28T20:21:54.120Z,2.11
2022-11-28T20:24:24.131Z,2.23
2022-11-28T20:26:58.124Z,2.26
2022-11-28T20:29:31.546Z,2.22
2022-11-28T20:32:02.220Z,2.11
2022-11-28T20:34:32.421Z,2.03
2022-11-28T20:37:03.518Z,2.01
2022-11-28T20:39:35.668Z,2.07
2022-11-28T20:42:11.756Z,2.05
2022-11-28T20:44:41.823Z,2.11
2022-11-28T20:47:16.606Z,2.18
2022-11-28T20:49:46.439Z,2.07
2022-11-28T20:52:17.237Z,2.05
2022-11-28T20:54:49.452Z,1.98
2022-11-28T20:57:22.206Z,2.07
2022-11-28T20:59:53.066Z,2.08
2022-11-28T21:02:22.826Z,2.19
2022-11-28T21:04:53.888Z,2.15
2022-11-28T21:07:26.078Z,2.22
2022-11-28T21:10:00.090Z,2.21
2022-11-28T21:12:32.106Z,2.09
2022-11-28T21:15:02.511Z,2.10
2022-11-28T21:17:32.323Z,2.17
2022-11-28T21:20:01.127Z,2.20
2022-11-28T21:22:32.504Z,2.15
2022-11-28T21:25:01.141Z,2.18
2022-11-28T21:27:32.718Z,2.11
2022-11-28T21:30:02.503Z,2.15
2022-11-28T21:32:31.309Z,2.21
2022-11-28T21:35:04.119Z,2.20
2022-11-28T21:37:33.564Z,2.16
2022-11-28T21:40:02.158Z,2.14
2022-11-28T21:42:32.113Z,2.20
2022-11-28T21:45:00.409Z,2.13
2022-11-28T21:47:28.944Z,2.05
2022-11-28T21:49:57.281Z,2.02
2022-11-28T21:52:25.556Z,2.16
2022-11-28T21:54:54.008Z,2.16
2022-11-28T21:57:23.006Z,2.20
2022-11-28T21:59:52.921Z,2.21
2022-11-28T22:02:24.957Z,2.15
2022-11-28T22:04:56.145Z,2.11
2022-11-28T22:07:24.546Z,2.03
2022-11-28T22:09:53.024Z,2.14
2022-11-28T22:12:21.353Z,2.16
2022-11-28T22:14:49.982Z,2.16
2022-11-28T22:17:22.826Z,2.15
2022-11-28T22:19:52.017Z,2.14
2022-11-28T22:22:23.014Z,2.09
2022-11-28T22:24:51.552Z,2.19
2022-11-28T22:27:20.064Z,2.17
2022-11-28T22:29:49.026Z,2.20
2022-11-28T22:32:19.394Z,2.25
2022-11-28T22:34:47.825Z,2.18
2022-11-28T22:37:16.831Z,1.99
2022-11-28T22:39:45.413Z,2.00
2022-11-28T22:42:13.889Z,2.10
2022-11-28T22:44:42.768Z,1.99
2022-11-28T22:47:11.404Z,2.08
2022-11-28T22:49:41.172Z,1.97
2022-11-28T22:52:09.876Z,2.12
2022-11-28T22:54:39.015Z,2.07
2022-11-28T22:57:07.884Z,2.05
2022-11-28T22:59:38.691Z,2.19
2022-11-28T23:02:07.151Z,2.13
2022-11-28T23:04:36.272Z,2.01
2022-11-28T23:07:06.222Z,1.96
2022-11-28T23:09:34.694Z,1.99
2022-11-28T23:12:03.145Z,1.90
2022-11-28T23:14:32.278Z,1.96
2022-11-28T23:17:00.675Z,1.92
2022-11-28T23:19:32.344Z,1.89
2022-11-28T23:22:01.125Z,1.81
2022-11-28T23:24:30.857Z,1.80
2022-11-28T23:26:59.997Z,1.72
2022-11-28T23:29:28.412Z,1.84
2022-11-28T23:31:57.041Z,1.72
2022-11-28T23:34:28.225Z,1.76
2022-11-28T23:36:56.567Z,1.79
2022-11-28T23:39:25.867Z,1.89
2022-11-28T23:42:05.572Z,1.96
2022-11-28T23:44:33.844Z,2.05
2022-11-28T23:47:02.184Z,1.96
2022-11-28T23:49:30.457Z,2.04
2022-11-28T23:51:59.132Z,2.05
2022-11-28T23:54:27.402Z,2.00
2022-11-28T23:56:55.901Z,1.94
2022-11-28T23:59:25.607Z,2.04
